Time;durP1;ratioP1;P1;durP2;ratioP2;P2;SDS_P1;SDS_P2;PMS_P1;PMS_P2;Temp;Humidity;BMP_temperature;BMP_pressure;BME280_temperature;BME280_humidity;BME280_pressure;Samples;Min_cycle;Max_cycle;Signal;HPM_P1;HPM_P2
2022/08/07 00:01:21;;;;;;;11.98;7.28;;;;;;;23.16;80.53;97093.22;5029760;28;20033;-80
2022/08/07 00:03:46;;;;;;;9.63;6.75;;;;;;;23.06;81.33;97092.66;5027531;28;20048;-80
2022/08/07 00:06:12;;;;;;;13.15;6.88;;;;;;;23.09;81.66;97102.34;5023076;28;20033;-79
2022/08/07 00:08:38;;;;;;;10.80;7.35;;;;;;;23.01;80.88;97086.88;5021465;28;20033;-79
2022/08/07 00:11:04;;;;;;;10.25;7.18;;;;;;;22.98;80.72;97084.53;5035271;28;20078;-79
2022/08/07 00:13:30;;;;;;;14.23;7.90;;;;;;;22.81;81.65;97090.31;5036211;28;20107;-76
2022/08/07 00:15:56;;;;;;;9.30;7.43;;;;;;;22.79;82.35;97076.88;5034317;28;20105;-81
2022/08/07 00:18:24;;;;;;;9.38;6.75;;;;;;;22.75;83.38;97089.16;5037677;28;20500;-80
2022/08/07 00:20:55;;;;;;;11.27;7.50;;;;;;;22.72;84.15;97099.59;5027160;28;20483;-80
2022/08/07 00:23:21;;;;;;;11.18;7.40;;;;;;;22.70;84.52;97101.66;5040269;28;20034;-80
2022/08/07 00:25:48;;;;;;;13.20;7.60;;;;;;;22.72;84.61;97108.63;5033103;28;20378;-80
2022/08/07 00:28:13;;;;;;;13.05;7.82;;;;;;;22.70;84.97;97107.97;5035842;28;20037;-80
2022/08/07 00:30:39;;;;;;;13.48;7.97;;;;;;;22.73;85.05;97109.47;5038115;28;20392;-79
2022/08/07 00:33:04;;;;;;;11.25;7.57;;;;;;;22.81;84.59;97118.44;5038691;28;20033;-80
2022/08/07 00:35:30;;;;;;;10.82;7.25;;;;;;;22.92;83.83;97123.47;5029367;28;20123;-79
2022/08/07 00:37:56;;;;;;;12.98;7.32;;;;;;;22.97;82.96;97112.88;5024606;28;20082;-81
2022/08/07 00:40:22;;;;;;;12.77;7.07;;;;;;;23.01;81.99;97122.34;5036362;28;20029;-79
2022/08/07 00:42:48;;;;;;;11.25;7.70;;;;;;;23.07;80.04;97121.63;5038048;28;20421;-79
2022/08/07 00:45:13;;;;;;;13.18;7.15;;;;;;;23.13;79.59;97114.63;5034019;28;20109;-81
2022/08/07 00:47:39;;;;;;;8.73;7.22;;;;;;;23.10;80.27;97118.53;5028730;28;20105;-80
2022/08/07 00:50:06;;;;;;;12.52;7.63;;;;;;;23.13;80.09;97125.53;5010292;28;20030;-79
2022/08/07 00:52:31;;;;;;;12.02;7.50;;;;;;;23.09;81.46;97135.97;5034790;28;20040;-80
2022/08/07 00:54:57;;;;;;;11.50;7.03;;;;;;;23.03;81.66;97131.22;5019011;28;20045;-80
2022/08/07 00:57:24;;;;;;;10.20;6.80;;;;;;;22.91;82.44;97127.25;5038245;28;20033;-79
2022/08/07 00:59:49;;;;;;;8.73;6.93;;;;;;;22.80;83.20;97135.81;5021994;28;20026;-80
2022/08/07 01:02:16;;;;;;;9.98;7.18;;;;;;;22.78;83.55;97124.25;5034635;28;20446;-80
2022/08/07 01:04:41;;;;;;;7.82;6.40;;;;;;;22.73;83.92;97128.56;5040848;28;20108;-80
2022/08/07 01:07:07;;;;;;;9.85;7.05;;;;;;;22.77;84.73;97149.81;5015742;28;20025;-80
2022/08/07 01:09:33;;;;;;;12.60;7.20;;;;;;;22.79;85.58;97169.59;5019030;28;20056;-81
2022/08/07 01:11:59;;;;;;;12.05;7.57;;;;;;;22.84;84.80;97213.53;5016858;28;20102;-80
2022/08/07 01:14:24;;;;;;;13.25;8.63;;;;;;;22.71;85.08;97245.13;5030888;28;20028;-80
2022/08/07 01:16:51;;;;;;;11.65;8.32;;;;;;;22.56;85.78;97236.84;5021390;28;20029;-81
2022/08/07 01:19:18;;;;;;;9.02;7.43;;;;;;;22.38;86.99;97218.00;5026156;28;20029;-80
2022/08/07 01:21:44;;;;;;;13.88;7.65;;;;;;;22.51;86.82;97225.63;5019448;28;20028;-80
2022/08/07 01:24:10;;;;;;;29.58;9.40;;;;;;;22.02;100.00;97228.53;5024805;28;20026;-80
2022/08/07 01:26:37;;;;;;;28.02;10.88;;;;;;;21.64;100.00;97245.56;5049909;28;20028;-79
2022/08/07 01:29:03;;;;;;;19.92;9.18;;;;;;;21.38;100.00;97250.34;5044201;28;20030;-79
2022/08/07 01:31:32;;;;;;;20.05;9.43;;;;;;;21.18;100.00;97243.50;5042829;28;20029;-78
2022/08/07 01:33:59;;;;;;;13.38;8.70;;;;;;;21.04;100.00;97259.41;5029834;28;20434;-78
2022/08/07 01:36:27;;;;;;;13.50;9.45;;;;;;;20.98;100.00;97242.91;5046718;28;20032;-78
2022/08/07 01:38:53;;;;;;;16.20;10.00;;;;;;;20.81;100.00;97242.03;5040146;28;20029;-78
2022/08/07 01:41:19;;;;;;;10.15;7.75;;;;;;;20.74;100.00;97245.56;5045921;28;20028;-79
2022/08/07 01:43:45;;;;;;;13.18;9.55;;;;;;;20.71;100.00;97238.59;5040770;28;20041;-79
2022/08/07 01:46:11;;;;;;;14.93;9.85;;;;;;;20.77;100.00;97239.78;5021197;28;20060;-79
2022/08/07 01:48:37;;;;;;;14.90;9.38;;;;;;;20.69;100.00;97237.06;5020643;28;20052;-79
2022/08/07 01:51:08;;;;;;;14.82;10.15;;;;;;;20.64;100.00;97231.28;5027292;28;20025;-78
2022/08/07 01:53:36;;;;;;;12.65;9.40;;;;;;;20.70;100.00;97226.03;5044864;28;20028;-79
2022/08/07 01:56:24;;;;;;;15.40;9.45;;;;;;;20.80;100.00;97226.72;5046667;28;20037;-79
2022/08/07 01:58:52;;;;;;;20.23;9.85;;;;;;;20.89;100.00;97214.84;5040069;28;20063;-79
2022/08/07 02:01:25;;;;;;;11.63;9.18;;;;;;;20.93;100.00;97221.66;5039467;28;20040;-80
2022/08/07 02:03:59;;;;;;;;;;;;;;;21.01;100.00;97216.22;5035826;28;20057;-81
2022/08/07 02:06:26;;;;;;;13.77;8.95;;;;;;;20.93;100.00;97205.34;5043871;28;19913;-80
2022/08/07 02:08:53;;;;;;;13.13;8.77;;;;;;;21.09;100.00;97215.44;5046402;28;20036;-78
2022/08/07 02:11:18;;;;;;;12.88;9.35;;;;;;;21.14;100.00;97220.34;5024349;28;20021;-78
2022/08/07 02:13:45;;;;;;;16.40;9.57;;;;;;;21.19;100.00;97218.00;5017073;28;20032;-79
2022/08/07 02:16:11;;;;;;;10.48;8.73;;;;;;;21.16;100.00;97207.47;5045520;28;20033;-80
2022/08/07 02:18:37;;;;;;;13.52;10.10;;;;;;;21.22;100.00;97206.78;5020957;28;20021;-80
2022/08/07 02:21:05;;;;;;;14.43;10.82;;;;;;;21.27;100.00;97210.69;5034691;28;20044;-79
2022/08/07 02:23:33;;;;;;;14.25;10.43;;;;;;;21.27;100.00;97212.56;5037272;28;20084;-80
2022/08/07 02:26:00;;;;;;;16.65;10.90;;;;;;;21.34;100.00;97217.16;5015340;28;20169;-79
2022/08/07 02:28:27;;;;;;;16.95;11.43;;;;;;;21.35;100.00;97224.28;5036473;28;20029;-79
2022/08/07 02:30:55;;;;;;;15.98;10.55;;;;;;;21.34;100.00;97221.75;5042614;28;20025;-79
2022/08/07 02:33:22;;;;;;;16.17;11.13;;;;;;;21.28;100.00;97220.56;5039783;28;20048;-79
2022/08/07 02:35:48;;;;;;;17.08;10.68;;;;;;;21.23;100.00;97209.31;5031804;28;20036;-79
2022/08/07 02:38:15;;;;;;;14.07;10.65;;;;;;;21.20;100.00;97195.19;5042561;28;20026;-78
2022/08/07 02:40:43;;;;;;;17.30;10.80;;;;;;;21.14;100.00;97191.28;5026686;28;20013;-79
2022/08/07 02:43:08;;;;;;;15.07;10.25;;;;;;;21.10;100.00;97189.09;5024938;28;20029;-79
2022/08/07 02:45:37;;;;;;;17.88;10.90;;;;;;;21.10;100.00;97191.81;5031874;28;20507;-78
2022/08/07 02:48:03;;;;;;;13.68;10.40;;;;;;;21.12;100.00;97187.03;5034276;28;20369;-78
2022/08/07 02:50:29;;;;;;;14.00;9.95;;;;;;;21.10;100.00;97191.81;5025725;28;20026;-79
2022/08/07 02:53:05;;;;;;;15.45;10.32;;;;;;;21.08;100.00;97195.53;5034039;28;20032;-80
2022/08/07 02:55:34;;;;;;;15.25;9.82;;;;;;;21.07;100.00;97193.78;5026962;28;20044;-79
2022/08/07 02:58:05;;;;;;;13.55;9.25;;;;;;;21.03;100.00;97181.56;5023816;28;20113;-80
2022/08/07 03:00:33;;;;;;;11.88;9.32;;;;;;;20.94;100.00;97187.16;5033133;28;20025;-80
2022/08/07 03:02:59;;;;;;;15.15;9.73;;;;;;;20.85;100.00;97183.59;5039567;28;20048;-80
2022/08/07 03:05:24;;;;;;;13.90;10.65;;;;;;;20.85;100.00;97178.16;5037159;28;20509;-80
2022/08/07 03:07:51;;;;;;;20.90;10.23;;;;;;;20.82;100.00;97189.38;5033570;28;20033;-80
2022/08/07 03:10:16;;;;;;;11.93;9.73;;;;;;;20.78;100.00;97198.88;5041419;28;20192;-80
2022/08/07 03:12:46;;;;;;;14.25;9.52;;;;;;;20.76;100.00;97195.47;5034528;28;20108;-80
2022/08/07 03:15:12;;;;;;;11.98;9.60;;;;;;;20.74;100.00;97194.78;5035209;28;20033;-79
2022/08/07 03:17:38;;;;;;;14.50;10.30;;;;;;;20.79;100.00;97203.28;5062764;28;20040;-79
2022/08/07 03:20:05;;;;;;;16.58;10.27;;;;;;;20.77;100.00;97208.03;5039359;28;20394;-79
2022/08/07 03:22:30;;;;;;;12.63;9.88;;;;;;;20.70;100.00;97204.28;5044783;28;20033;-79
2022/08/07 03:24:58;;;;;;;12.23;9.43;;;;;;;20.68;100.00;97184.56;5024834;28;20029;-82
2022/08/07 03:27:24;;;;;;;15.63;10.45;;;;;;;20.70;100.00;97200.72;5048131;28;20037;-81
2022/08/07 03:29:51;;;;;;;17.58;10.00;;;;;;;20.70;100.00;97198.00;5040135;28;20475;-80
2022/08/07 03:32:22;;;;;;;16.55;10.63;;;;;;;20.70;100.00;97209.72;5039857;28;20111;-80
2022/08/07 03:34:49;;;;;;;13.30;9.52;;;;;;;20.71;100.00;97203.25;5020340;28;20197;-79
2022/08/07 03:37:17;;;;;;;13.23;10.02;;;;;;;20.76;100.00;97208.22;5016372;28;20532;-79
2022/08/07 03:39:43;;;;;;;13.80;9.93;;;;;;;20.72;100.00;97198.69;5040796;28;20104;-79
2022/08/07 03:42:09;;;;;;;20.05;10.95;;;;;;;20.68;100.00;97203.59;5017413;28;20063;-80
2022/08/07 03:44:35;;;;;;;17.98;10.80;;;;;;;20.57;100.00;97203.91;5028904;28;20469;-80
2022/08/07 03:47:01;;;;;;;13.52;11.35;;;;;;;20.64;100.00;97210.38;5043500;28;20033;-81
2022/08/07 03:49:27;;;;;;;16.73;11.15;;;;;;;20.75;100.00;97220.09;5035970;28;20394;-79
2022/08/07 03:51:54;;;;;;;16.63;11.30;;;;;;;20.79;100.00;97219.59;5027723;28;20037;-80
2022/08/07 03:54:19;;;;;;;18.05;11.90;;;;;;;20.84;100.00;97219.94;5038809;28;20109;-80
2022/08/07 03:56:45;;;;;;;17.40;11.07;;;;;;;20.89;100.00;97216.72;5021612;28;20079;-80
2022/08/07 03:59:13;;;;;;;18.65;11.95;;;;;;;20.83;100.00;97218.22;5017392;28;20125;-80
2022/08/07 04:01:42;;;;;;;14.02;10.88;;;;;;;20.83;100.00;97228.25;5042476;28;20488;-80
2022/08/07 04:04:09;;;;;;;19.30;12.23;;;;;;;20.86;100.00;97226.06;5044702;28;20082;-80
2022/08/07 04:06:36;;;;;;;14.27;10.43;;;;;;;20.87;100.00;97230.50;5039104;28;20032;-78
2022/08/07 04:09:02;;;;;;;15.95;10.75;;;;;;;20.95;100.00;97233.22;5041888;28;20452;-80
2022/08/07 04:11:28;;;;;;;16.48;10.80;;;;;;;21.01;100.00;97221.66;5039519;28;20064;-81
2022/08/07 04:13:55;;;;;;;15.15;10.60;;;;;;;21.05;100.00;97228.47;5017291;28;20129;-80
2022/08/07 04:16:21;;;;;;;13.13;9.77;;;;;;;21.19;100.00;97243.34;5036711;28;20140;-79
2022/08/07 04:18:46;;;;;;;14.23;10.52;;;;;;;21.27;100.00;97243.34;5044732;28;20033;-80
2022/08/07 04:21:13;;;;;;;19.33;11.55;;;;;;;21.28;100.00;97244.19;5042392;28;20464;-80
2022/08/07 04:23:39;;;;;;;15.73;10.77;;;;;;;21.43;100.00;97242.50;5035824;28;20416;-79
2022/08/07 04:26:06;;;;;;;17.92;11.20;;;;;;;21.65;100.00;97252.72;5042217;28;20037;-79
2022/08/07 04:28:31;;;;;;;18.63;11.70;;;;;;;21.69;100.00;97253.22;5042752;28;20041;-79
2022/08/07 04:30:57;;;;;;;15.98;10.77;;;;;;;22.00;100.00;97252.34;5019559;28;20120;-80
2022/08/07 04:33:23;;;;;;;15.60;11.00;;;;;;;22.19;100.00;97250.25;5041706;28;20029;-79
2022/08/07 04:35:49;;;;;;;18.00;11.07;;;;;;;22.10;100.00;97253.00;5038711;28;20029;-79
2022/08/07 04:38:14;;;;;;;13.50;9.82;;;;;;;22.09;100.00;97245.84;5035579;28;20029;-79
2022/08/07 04:40:42;;;;;;;13.35;9.73;;;;;;;22.04;100.00;97250.13;5032570;28;20017;-79
2022/08/07 04:43:08;;;;;;;17.77;10.00;;;;;;;21.97;100.00;97247.25;5050588;28;20120;-79
2022/08/07 04:46:04;;;;;;;15.15;9.68;;;;;;;21.93;100.00;97245.88;5031709;28;20057;-80
2022/08/07 04:49:05;;;;;;;17.90;9.60;;;;;;;21.89;100.00;97250.00;5045088;28;20108;-79
2022/08/07 04:52:12;;;;;;;14.95;9.07;;;;;;;21.98;100.00;97254.41;4980491;28;20053;-86
2022/08/07 04:54:41;;;;;;;12.57;9.57;;;;;;;22.10;100.00;97258.47;5048145;28;20030;-86
2022/08/07 04:57:18;;;;;;;11.52;9.75;;;;;;;22.14;100.00;97254.38;5031634;28;20041;-87
2022/08/07 04:59:58;;;;;;;16.15;10.23;;;;;;;22.17;100.00;97252.31;5049688;28;20479;-87
2022/08/07 05:02:31;;;;;;;12.50;9.98;;;;;;;22.25;100.00;97269.47;5038062;28;20528;-87
2022/08/07 05:05:05;;;;;;;13.88;9.65;;;;;;;22.28;100.00;97276.47;5037105;28;20194;-87
2022/08/07 05:07:54;;;;;;;16.88;12.77;;;;;;;22.34;100.00;97282.06;5041699;28;20060;-86
2022/08/07 05:10:31;;;;;;;28.85;19.23;;;;;;;22.46;100.00;97282.53;5032789;28;20512;-85
2022/08/07 05:13:02;;;;;;;15.43;12.13;;;;;;;22.48;100.00;97285.94;5040153;28;20467;-87
2022/08/07 05:15:35;;;;;;;15.25;11.43;;;;;;;22.46;100.00;97290.72;5019138;28;20076;-86
2022/08/07 05:18:04;;;;;;;12.52;9.68;;;;;;;22.48;100.00;97288.69;5060224;27;20029;-86
2022/08/07 05:20:34;;;;;;;13.45;10.60;;;;;;;22.46;100.00;97290.72;5020360;28;20025;-86
2022/08/07 05:23:04;;;;;;;13.77;9.82;;;;;;;22.61;100.00;97281.63;5031976;28;20411;-86
2022/08/07 05:25:30;;;;;;;12.80;9.50;;;;;;;22.94;100.00;97298.75;5038544;28;20025;-85
2022/08/07 05:27:57;;;;;;;12.70;9.70;;;;;;;23.09;100.00;97296.97;5029874;28;20032;-85
2022/08/07 05:30:23;;;;;;;11.93;10.05;;;;;;;23.15;100.00;97303.56;5016266;28;20021;-85
2022/08/07 05:32:49;;;;;;;11.57;8.98;;;;;;;24.48;100.00;97295.69;5040891;28;20025;-86
2022/08/07 05:35:17;;;;;;;12.55;9.40;;;;;;;26.26;92.41;97305.00;5038770;28;20029;-87
2022/08/07 05:37:43;;;;;;;10.82;8.82;;;;;;;28.07;79.33;97297.16;5022068;28;20028;-85
2022/08/07 05:40:10;;;;;;;14.70;7.88;;;;;;;30.01;67.62;97289.59;5031885;28;20029;-87
2022/08/07 05:42:36;;;;;;;11.25;7.78;;;;;;;31.44;61.24;97289.22;5044302;28;20025;-87
2022/08/07 05:45:04;;;;;;;12.68;7.95;;;;;;;32.65;56.39;97289.75;5037840;28;20028;-85
2022/08/07 05:47:30;;;;;;;10.60;7.40;;;;;;;33.45;52.34;97281.59;5036172;28;20021;-86
2022/08/07 05:49:57;;;;;;;10.75;7.65;;;;;;;33.31;52.76;97299.63;5045696;28;20492;-86
2022/08/07 05:52:22;;;;;;;10.75;8.20;;;;;;;32.92;53.70;97297.56;5040636;28;20108;-86
2022/08/07 05:54:48;;;;;;;9.63;8.30;;;;;;;33.76;50.80;97297.81;5027127;28;20048;-88
2022/08/07 05:57:14;;;;;;;9.93;7.82;;;;;;;34.52;48.20;97299.19;5017283;28;20033;-87
2022/08/07 05:59:41;;;;;;;8.90;7.75;;;;;;;35.13;46.26;97294.66;5019047;28;20021;-87
2022/08/07 06:02:08;;;;;;;9.57;8.30;;;;;;;35.73;44.77;97306.59;5013212;28;20100;-88
2022/08/07 06:04:37;;;;;;;8.82;7.57;;;;;;;36.03;45.38;97308.00;5022397;28;20124;-87
2022/08/07 06:07:04;;;;;;;16.38;8.30;;;;;;;36.59;44.31;97299.16;5032525;28;20082;-88
2022/08/07 06:09:33;;;;;;;15.93;9.00;;;;;;;35.50;46.65;97311.56;5036933;28;20061;-87
2022/08/07 06:11:59;;;;;;;11.73;9.60;;;;;;;34.28;49.26;97323.53;5036000;28;20062;-88
2022/08/07 06:14:25;;;;;;;10.70;9.05;;;;;;;35.84;45.48;97311.16;5039441;28;20025;-86
2022/08/07 06:16:51;;;;;;;11.68;8.35;;;;;;;35.99;44.54;97323.59;5045120;28;20121;-87
2022/08/07 06:19:18;;;;;;;12.82;8.02;;;;;;;36.70;43.03;97306.47;5025804;28;20032;-87
2022/08/07 06:21:45;;;;;;;11.75;8.60;;;;;;;35.95;44.60;97331.63;5041470;28;20017;-87
2022/08/07 06:24:11;;;;;;;12.57;9.02;;;;;;;34.92;46.18;97317.66;5039181;28;20024;-87
2022/08/07 06:26:41;;;;;;;17.70;9.02;;;;;;;35.41;45.28;97316.72;5022396;28;20384;-87
2022/08/07 06:29:07;;;;;;;9.25;8.15;;;;;;;36.86;42.75;97310.22;5030860;28;20033;-87
2022/08/07 06:31:34;;;;;;;8.40;7.60;;;;;;;38.14;39.88;97300.31;5026926;28;20484;-87
2022/08/07 06:33:59;;;;;;;11.48;8.50;;;;;;;38.36;39.59;97300.91;5034036;28;20111;-87
2022/08/07 06:36:28;;;;;;;32.65;9.10;;;;;;;38.57;38.83;97300.94;5039448;28;20404;-87
2022/08/07 06:38:54;;;;;;;13.25;9.27;;;;;;;36.34;42.09;97301.66;5039119;28;20029;-87
2022/08/07 06:41:25;;;;;;;9.73;8.23;;;;;;;35.42;44.44;97312.84;5037436;28;20075;-88
2022/08/07 06:43:51;;;;;;;13.80;8.43;;;;;;;35.95;43.60;97314.06;5038335;28;20373;-87
2022/08/07 06:46:17;;;;;;;8.93;7.80;;;;;;;35.21;44.96;97322.00;5030164;28;20475;-88
2022/08/07 06:48:43;;;;;;;15.70;7.68;;;;;;;35.55;44.06;97308.81;5014200;28;20029;-86
2022/08/07 06:51:09;;;;;;;12.15;8.27;;;;;;;36.95;40.57;97301.09;5039975;28;20060;-87
2022/08/07 06:53:44;;;;;;;9.88;6.53;;;;;;;35.47;41.57;97310.09;5025665;28;20128;-87
2022/08/07 06:56:12;;;;;;;9.50;8.07;;;;;;;34.23;44.82;97320.66;5028447;28;20398;-87
2022/08/07 06:58:38;;;;;;;10.40;7.30;;;;;;;33.12;47.41;97325.81;5014217;28;20120;-86
2022/08/07 07:01:09;;;;;;;9.65;7.35;;;;;;;34.33;44.98;97315.25;5021742;28;20411;-86
2022/08/07 07:03:38;;;;;;;7.43;6.63;;;;;;;36.01;41.34;97307.44;5033545;28;20424;-86
2022/08/07 07:06:05;;;;;;;10.63;6.30;;;;;;;36.09;41.60;97309.78;5038101;28;20037;-88
2022/08/07 07:08:30;;;;;;;14.40;7.60;;;;;;;35.57;42.17;97318.63;5046385;28;20078;-87
2022/08/07 07:10:56;;;;;;;10.93;6.88;;;;;;;37.19;39.43;97314.69;5040238;28;20488;-88
2022/08/07 07:13:28;;;;;;;11.57;7.30;;;;;;;37.33;38.69;97310.28;5025906;28;20134;-83
2022/08/07 07:15:59;;;;;;;22.75;11.73;;;;;;;36.79;42.14;97321.59;5037834;28;20025;-84
2022/08/07 07:18:29;;;;;;;10.32;8.13;;;;;;;35.65;45.37;97337.69;5063342;28;20165;-82
2022/08/07 07:20:57;;;;;;;9.80;7.40;;;;;;;36.95;41.58;97316.97;5048174;28;20118;-87
2022/08/07 07:23:25;;;;;;;11.90;8.35;;;;;;;36.52;42.26;97331.97;5023191;28;20032;-83
2022/08/07 07:25:53;;;;;;;10.45;8.18;;;;;;;35.62;45.48;97338.19;5043796;28;20081;-82
2022/08/07 07:28:36;;;;;;;13.30;8.00;;;;;;;35.56;43.70;97333.63;5047697;28;20103;-81
2022/08/07 07:31:30;;;;;;;10.55;8.30;;;;;;;35.73;46.11;97348.34;5038378;28;20243;-81
2022/08/07 07:33:58;;;;;;;11.13;8.63;;;;;;;37.18;40.94;97329.72;5039766;28;20101;-83
2022/08/07 07:36:25;;;;;;;9.52;8.10;;;;;;;36.41;43.35;97327.38;5045222;28;20448;-83
2022/08/07 07:38:50;;;;;;;9.15;8.18;;;;;;;36.13;42.31;97327.66;5013544;28;20089;-84
2022/08/07 07:41:19;;;;;;;11.20;7.93;;;;;;;36.54;41.34;97329.78;5021843;28;20032;-84
2022/08/07 07:43:46;;;;;;;11.18;9.40;;;;;;;35.34;42.42;97318.88;5013878;28;20502;-82
2022/08/07 07:46:12;;;;;;;10.38;9.27;;;;;;;35.68;42.20;97314.88;5026431;28;20033;-82
2022/08/07 07:48:39;;;;;;;9.32;7.72;;;;;;;37.11;39.54;97307.63;5013839;28;20041;-82
2022/08/07 07:51:05;;;;;;;13.63;7.80;;;;;;;39.23;35.95;97308.19;5017173;28;20401;-81
2022/08/07 07:53:31;;;;;;;10.32;8.10;;;;;;;40.30;37.32;97319.84;5008870;28;20043;-81
2022/08/07 07:55:58;;;;;;;13.13;8.57;;;;;;;38.91;37.83;97316.06;5022283;28;20039;-82
2022/08/07 07:58:34;;;;;;;10.88;8.00;;;;;;;40.12;34.43;97303.69;5008782;28;20025;-82
2022/08/07 08:01:03;;;;;;;12.45;8.40;;;;;;;38.63;36.10;97291.44;5040844;28;20061;-81
2022/08/07 08:03:30;;;;;;;15.73;8.85;;;;;;;38.19;37.25;97307.84;5029592;28;20122;-82
2022/08/07 08:05:56;;;;;;;14.10;8.70;;;;;;;39.82;35.10;97305.50;5037539;28;20105;-81
2022/08/07 08:08:27;;;;;;;11.93;8.90;;;;;;;39.06;36.77;97299.25;5035738;28;20033;-81
2022/08/07 08:10:54;;;;;;;10.05;8.85;;;;;;;39.15;36.04;97310.69;5043119;28;20084;-81
2022/08/07 08:13:22;;;;;;;11.45;7.97;;;;;;;39.63;34.31;97307.22;5037926;28;20086;-80
2022/08/07 08:15:48;;;;;;;11.48;8.48;;;;;;;39.79;34.38;97305.22;5019966;28;20472;-81
2022/08/07 08:18:14;;;;;;;10.45;8.13;;;;;;;39.16;35.51;97312.38;5034880;28;20029;-80
2022/08/07 08:20:40;;;;;;;11.23;7.68;;;;;;;38.58;35.50;97295.03;5011777;28;20113;-81
2022/08/07 08:28:34;;;;;;;;;;;;;;;40.26;34.17;97299.94;5031734;28;20029;-81
2022/08/07 08:31:02;;;;;;;10.82;8.27;;;;;;;40.73;33.22;97301.28;5050340;27;19971;-81
2022/08/07 08:33:30;;;;;;;9.85;7.82;;;;;;;35.67;40.14;97301.22;5014098;28;20029;-82
2022/08/07 08:35:56;;;;;;;14.20;11.35;;;;;;;34.72;42.98;97320.97;5017428;28;20039;-81
2022/08/07 08:38:25;;;;;;;11.57;8.32;;;;;;;33.71;44.54;97317.13;5044289;27;20028;-82
2022/08/07 08:41:12;;;;;;;13.90;8.82;;;;;;;33.67;44.73;97323.41;5036237;28;20035;-81
2022/08/07 08:43:52;;;;;;;10.68;8.55;;;;;;;34.16;43.42;97322.75;5055212;28;20128;-81
2022/08/07 08:46:31;;;;;;;12.07;8.77;;;;;;;33.55;44.12;97317.03;5029534;28;20082;-82
2022/08/07 08:49:16;;;;;;;10.60;8.70;;;;;;;31.61;48.82;97344.78;5039585;28;20034;-81
2022/08/07 08:51:56;;;;;;;10.07;8.82;;;;;;;31.41;49.06;97320.13;5040283;28;20099;-82
2022/08/07 08:54:44;;;;;;;12.18;9.43;;;;;;;33.35;45.37;97320.22;5032226;28;20044;-82
2022/08/07 08:57:23;;;;;;;11.32;8.82;;;;;;;33.96;43.66;97321.50;5032949;28;20492;-82
2022/08/07 09:00:09;;;;;;;14.68;8.90;;;;;;;33.83;44.20;97310.69;5016005;28;20028;-81
2022/08/07 09:02:37;;;;;;;9.23;8.20;;;;;;;35.28;42.63;97311.53;5032710;28;20044;-81
2022/08/07 09:05:28;;;;;;;13.55;8.57;;;;;;;36.16;40.22;97302.06;5030893;28;20540;-81
2022/08/07 09:08:12;;;;;;;12.73;8.50;;;;;;;35.14;41.13;97299.94;5023944;28;20486;-81
2022/08/07 09:10:43;;;;;;;11.48;7.85;;;;;;;34.22;42.21;97295.91;5043777;28;20060;-81
2022/08/07 09:13:31;;;;;;;9.13;7.95;;;;;;;33.74;43.65;97313.88;5021174;28;20037;-80
2022/08/07 09:16:18;;;;;;;12.50;8.20;;;;;;;33.05;44.14;97313.97;5038022;28;20397;-79
2022/08/07 09:19:05;;;;;;;9.55;8.18;;;;;;;32.45;45.50;97305.88;5029115;28;20025;-80
2022/08/07 09:21:32;;;;;;;19.73;10.57;;;;;;;32.30;46.32;97307.41;5039199;28;20029;-80
2022/08/07 09:24:27;;;;;;;13.15;8.40;;;;;;;32.21;47.02;97304.97;5024731;28;20225;-80
2022/08/07 09:27:12;;;;;;;13.48;9.80;;;;;;;32.19;46.97;97300.75;5027376;28;20037;-81
2022/08/07 09:30:06;;;;;;;10.05;8.95;;;;;;;31.69;47.02;97306.56;5031484;28;20029;-83
2022/08/07 09:32:59;;;;;;;16.42;13.15;;;;;;;34.71;41.75;97297.03;5030922;28;20575;-81
2022/08/07 09:35:45;;;;;;;11.07;8.23;;;;;;;35.31;41.96;97302.69;5028667;28;20116;-81
2022/08/07 09:38:46;;;;;;;9.93;7.28;;;;;;;37.66;38.56;97275.53;5033263;28;20062;-83
2022/08/07 09:41:53;;;;;;;9.77;7.65;;;;;;;37.51;37.21;97267.09;5036074;28;20044;-82
2022/08/07 09:44:48;;;;;;;12.38;7.55;;;;;;;36.57;38.49;97267.91;5041288;28;20045;-84
2022/08/07 09:47:40;;;;;;;8.30;7.43;;;;;;;34.67;41.20;97273.63;5038499;28;20040;-84
2022/08/07 09:50:30;;;;;;;9.68;7.97;;;;;;;34.19;41.89;97269.47;5068248;27;20520;-84
2022/08/07 09:52:59;;;;;;;12.48;8.10;;;;;;;33.98;42.79;97272.09;5035720;28;20037;-84
2022/08/07 09:55:49;;;;;;;12.07;9.27;;;;;;;33.59;42.88;97273.84;5037982;28;20457;-82
2022/08/07 09:58:21;;;;;;;11.40;8.40;;;;;;;32.56;45.82;97277.34;5039113;28;20472;-82
2022/08/07 10:01:01;;;;;;;11.82;8.95;;;;;;;31.84;47.02;97284.00;5035369;28;20040;-83
2022/08/07 10:03:50;;;;;;;9.95;7.80;;;;;;;31.19;48.26;97284.91;5036315;28;20037;-81
2022/08/07 10:06:46;;;;;;;10.45;8.00;;;;;;;30.98;48.90;97288.94;5045230;28;20041;-83
2022/08/07 10:09:42;;;;;;;11.10;7.95;;;;;;;30.82;49.33;97295.91;5049016;27;20108;-82
2022/08/07 10:12:44;;;;;;;16.42;8.75;;;;;;;31.91;47.37;97300.53;5033007;28;20136;-83
2022/08/07 10:15:18;;;;;;;15.52;7.82;;;;;;;32.67;44.88;97284.81;5043258;28;20085;-83
2022/08/07 10:18:09;;;;;;;12.25;8.23;;;;;;;33.18;44.59;97274.91;5038811;28;20074;-83
2022/08/07 10:20:53;;;;;;;13.75;8.30;;;;;;;33.03;46.21;97282.88;5037519;28;20040;-83
2022/08/07 10:24:03;;;;;;;10.00;8.40;;;;;;;32.67;47.47;97286.78;5030073;28;20393;-84
2022/08/07 10:26:54;;;;;;;15.05;8.35;;;;;;;34.61;44.45;97286.59;4971889;28;20038;-84
2022/08/07 10:30:05;;;;;;;12.45;7.28;;;;;;;36.11;39.41;97257.44;5060988;28;20055;-83
2022/08/07 10:32:48;;;;;;;17.25;9.82;;;;;;;33.86;49.54;97315.75;5062108;28;20420;-83
2022/08/07 10:35:37;;;;;;;16.30;9.82;;;;;;;31.69;58.38;97342.53;5036507;28;20460;-84
2022/08/07 10:38:25;;;;;;;13.73;9.57;;;;;;;30.35;59.77;97321.38;5029647;28;20532;-83
2022/08/07 10:41:15;;;;;;;18.35;11.55;;;;;;;29.58;68.64;97326.13;5038221;28;20055;-84
2022/08/07 10:44:09;;;;;;;14.85;11.23;;;;;;;28.75;84.51;97318.75;5031523;28;20029;-83
2022/08/07 10:46:58;;;;;;;14.90;10.82;;;;;;;28.43;87.50;97309.44;5039179;28;20150;-84
2022/08/07 10:49:48;;;;;;;16.05;10.45;;;;;;;28.19;85.89;97318.34;5027542;28;20033;-82
2022/08/07 10:52:46;;;;;;;22.85;14.23;;;;;;;27.63;91.79;97312.28;5045770;28;20040;-83
2022/08/07 10:55:23;;;;;;;26.00;12.30;;;;;;;26.59;100.00;97293.38;5042913;28;20060;-86
2022/08/07 10:58:16;;;;;;;35.30;20.08;;;;;;;26.40;100.00;97301.28;5017884;28;20026;-88
2022/08/07 11:01:24;;;;;;;37.80;23.75;;;;;;;26.14;100.00;97295.56;5042483;28;20035;-86
2022/08/07 11:04:27;;;;;;;19.90;13.68;;;;;;;26.15;100.00;97289.06;5027395;28;20516;-85
2022/08/07 11:07:17;;;;;;;18.45;10.55;;;;;;;27.83;100.00;97288.44;5027901;28;20033;-85
2022/08/07 11:09:51;;;;;;;16.58;10.48;;;;;;;31.00;76.95;97290.44;5040873;28;20126;-86
2022/08/07 11:12:21;;;;;;;16.90;9.30;;;;;;;33.68;64.21;97294.59;5044295;28;20119;-86
2022/08/07 11:14:54;;;;;;;8.32;7.45;;;;;;;35.87;54.56;97290.31;5014363;28;20038;-86
2022/08/07 11:17:27;;;;;;;11.32;8.23;;;;;;;34.70;50.35;97279.50;5029293;28;20052;-85
2022/08/07 11:20:03;;;;;;;10.68;7.97;;;;;;;34.72;51.96;97280.13;5101539;27;20034;-85
2022/08/07 11:22:33;;;;;;;10.40;7.57;;;;;;;37.08;48.40;97269.09;5033296;28;20025;-85
2022/08/07 11:25:17;;;;;;;8.40;7.50;;;;;;;36.76;45.08;97260.78;5056160;28;20044;-85
2022/08/07 11:27:56;;;;;;;10.95;7.68;;;;;;;34.46;48.48;97252.97;5008989;28;20093;-86
2022/08/07 11:30:25;;;;;;;9.93;8.57;;;;;;;34.47;55.35;97313.00;5016210;28;20032;-85
2022/08/07 11:33:04;;;;;;;11.07;9.13;;;;;;;33.09;59.72;97307.72;5040062;28;20032;-85
2022/08/07 11:35:49;;;;;;;13.18;8.77;;;;;;;31.75;56.82;97284.59;5030301;28;20064;-85
2022/08/07 11:38:26;;;;;;;9.63;7.47;;;;;;;30.84;63.69;97291.00;5032425;28;20036;-85
2022/08/07 11:41:15;;;;;;;15.55;11.35;;;;;;;31.40;61.72;97281.66;5036293;28;20048;-86
2022/08/07 11:44:16;;;;;;;8.13;6.88;;;;;;;33.79;56.65;97254.81;5017343;28;20032;-87
2022/08/07 11:46:52;;;;;;;11.70;7.22;;;;;;;34.12;53.20;97252.13;5013586;28;20043;-86
2022/08/07 11:49:37;;;;;;;7.50;6.45;;;;;;;35.05;49.31;97239.41;5026216;28;20449;-86
2022/08/07 11:52:26;;;;;;;7.13;6.38;;;;;;;37.25;47.67;97241.03;5016837;28;20466;-87